St David — 2BHL9 — position and weather

sailwx.info

Track history (hours):
 
Tides and Currents Weather Stations Pressure Air Temp Water Temp Dewpoint Dewpoint Depression Visibility Wind Speed Wind Dir Waves Ship Positions

St David

Last reported at 2016-Jun-27 14:33 UTC. Time now 2016-Jun-29 12:53 UTC.
Position N 42°24' E 018°29'.

Length 60 m; draft 3.4 m.

Type: Pleasure craft. MMSI: 235066164.

Date/timePositionNaut miles runAvg speedWind from/ knotsBaromVisibWave heightAir tempDewpointWater temp
2016-Jun-27 14:33N 42°24' E 018°29'8 7.6
2016-Jun-27 13:33N 42°26' E 018°39'1 1.4
2016-Jun-27 12:32N 42°26' E 018°41'0 0.0
2016-Jun-27 11:32N 42°26' E 018°41'0 0.0
2016-Jun-27 10:32N 42°26' E 018°41'0 0.0
2016-Jun-27 09:32N 42°26' E 018°41'0 0.0
2016-Jun-27 08:32N 42°26' E 018°41'0 0.0
2016-Jun-27 07:32N 42°26' E 018°41'0 0.0
2016-Jun-27 06:32N 42°26' E 018°41'0 0.0
2016-Jun-27 05:32N 42°26' E 018°41'0 0.0
2016-Jun-27 04:32N 42°26' E 018°41'0 0.0
2016-Jun-27 03:32N 42°26' E 018°41'0 0.0
2016-Jun-27 02:32N 42°26' E 018°41'0 0.0
2016-Jun-27 01:32N 42°26' E 018°41'0 0.0
2016-Jun-27 00:32N 42°26' E 018°41'0 0.0
2016-Jun-26 23:32N 42°26' E 018°41'0 0.0
2016-Jun-26 22:32N 42°26' E 018°41'0 0.0
2016-Jun-26 21:32N 42°26' E 018°41'0 0.0
2016-Jun-26 20:32N 42°26' E 018°41'0 0.0
2016-Jun-26 19:32N 42°26' E 018°41'0 0.0
2016-Jun-26 18:32N 42°26' E 018°41'3 3.1
2016-Jun-26 17:33N 42°28' E 018°45'3 2.5
2016-Jun-26 16:31N 42°25' E 018°46'0 0.0
2016-Jun-26 15:31N 42°25' E 018°46'0 0.0
2016-Jun-26 14:28N 42°25' E 018°46'0 0.0
2016-Jun-26 13:31N 42°25' E 018°46'0 0.0
2016-Jun-26 12:31N 42°25' E 018°46'0 0.0
2016-Jun-26 11:31N 42°25' E 018°46'0 0.0
2016-Jun-26 10:31N 42°25' E 018°46'0 0.0
2016-Jun-26 09:31N 42°25' E 018°46'0 0.0
2016-Jun-26 08:31N 42°25' E 018°46'0 0.0
2016-Jun-26 07:31N 42°25' E 018°46'0 0.0
2016-Jun-26 06:31N 42°25' E 018°46'0 0.0
2016-Jun-26 05:31N 42°25' E 018°46'0 0.0
2016-Jun-26 04:31N 42°25' E 018°46'0 0.0
2016-Jun-26 03:28N 42°25' E 018°46'0 0.0
2016-Jun-26 02:31N 42°25' E 018°46'0 0.0
2016-Jun-26 01:31N 42°25' E 018°46'0 0.0
2016-Jun-26 00:31N 42°25' E 018°46'0 0.0
2016-Jun-25 23:31N 42°25' E 018°46'0 0.0
2016-Jun-25 22:31N 42°25' E 018°46'0 0.0
2016-Jun-25 21:31N 42°25' E 018°46'0 0.0
2016-Jun-25 20:31N 42°25' E 018°46'0 0.0
2016-Jun-25 19:28N 42°25' E 018°46'0 0.0
2016-Jun-25 18:31N 42°25' E 018°46'0 0.0
2016-Jun-25 17:31N 42°25' E 018°46'0 0.0
2016-Jun-25 16:28N 42°25' E 018°46'0 0.0
2016-Jun-25 15:28N 42°25' E 018°46'0 0.0
2016-Jun-25 14:31N 42°25' E 018°46'0 0.0
2016-Jun-25 13:31N 42°25' E 018°46'0 0.0
2016-Jun-25 12:31N 42°25' E 018°46'0 0.0
2016-Jun-25 11:31N 42°25' E 018°46'0 0.0
2016-Jun-25 10:28N 42°25' E 018°46'0 0.0
2016-Jun-25 09:31N 42°25' E 018°46'0 0.0
2016-Jun-25 08:31N 42°25' E 018°46'0 0.0
2016-Jun-25 07:32N 42°25' E 018°46'0 0.0
2016-Jun-25 06:29N 42°25' E 018°46'0 0.0
2016-Jun-25 05:32N 42°25' E 018°46'0 0.0
2016-Jun-25 04:32N 42°25' E 018°46'0 0.0
2016-Jun-25 03:32N 42°25' E 018°46'0 0.0
2016-Jun-25 02:32N 42°25' E 018°46'0 0.0
2016-Jun-25 01:32N 42°25' E 018°46'0 0.0
2016-Jun-25 00:32N 42°25' E 018°46'0 0.0
2016-Jun-24 23:32N 42°25' E 018°46'0 0.0
2016-Jun-24 22:32N 42°25' E 018°46'0 0.0
2016-Jun-24 21:32N 42°25' E 018°46'0 0.0
2016-Jun-24 20:32N 42°25' E 018°46'2 1.6
2016-Jun-24 19:33N 42°27' E 018°46'7 7.3
2016-Jun-24 18:33N 42°26' E 018°36'7 6.8
2016-Jun-24 17:33N 42°19' E 018°39'9 4.0
2016-Jun-24 15:16N 42°17' E 018°51'0 0.0
2016-Jun-24 06:32N 42°16' E 018°51'  
2016-Jun-20 21:33N 38°09' E 020°50'8 8.0
2016-Jun-20 20:32N 38°02' E 020°45'16 3.1
2016-Jun-20 15:31N 38°08' E 020°27'1212.3
2016-Jun-20 14:34N 37°57' E 020°33'7 6.5
2016-Jun-20 13:31N 37°56' E 020°42'2 2.3
2016-Jun-20 12:31N 37°54' E 020°43'0 0.0
2016-Jun-20 10:31N 37°54' E 020°43'0 0.0
2016-Jun-20 08:28N 37°54' E 020°43'0 0.1
2016-Jun-20 07:33N 37°54' E 020°43'1312.8
2016-Jun-20 06:32N 37°48' E 020°57'  
Track history (hours):
 
Tides and Currents Weather Stations Pressure Air Temp Water Temp Dewpoint Dewpoint Depression Visibility Wind Speed Wind Dir Waves Ship Positions

St David

Last reported at 2016-Jun-27 14:33 UTC. Time now 2016-Jun-29 12:53 UTC.
Position N 42°24' E 018°29'.

Length 60 m; draft 3.4 m.

Type: Pleasure craft. MMSI: 235066164.

Date/timePositionNaut miles runAvg speedWind from/ knotsBaromVisibWave heightAir tempDewpointWater temp
2016-Jun-27 14:33N 42°24' E 018°29'8 7.6
2016-Jun-27 13:33N 42°26' E 018°39'1 1.4
2016-Jun-27 12:32N 42°26' E 018°41'0 0.0
2016-Jun-27 11:32N 42°26' E 018°41'0 0.0
2016-Jun-27 10:32N 42°26' E 018°41'0 0.0
2016-Jun-27 09:32N 42°26' E 018°41'0 0.0
2016-Jun-27 08:32N 42°26' E 018°41'0 0.0
2016-Jun-27 07:32N 42°26' E 018°41'0 0.0
2016-Jun-27 06:32N 42°26' E 018°41'0 0.0
2016-Jun-27 05:32N 42°26' E 018°41'0 0.0
2016-Jun-27 04:32N 42°26' E 018°41'0 0.0
2016-Jun-27 03:32N 42°26' E 018°41'0 0.0
2016-Jun-27 02:32N 42°26' E 018°41'0 0.0
2016-Jun-27 01:32N 42°26' E 018°41'0 0.0
2016-Jun-27 00:32N 42°26' E 018°41'0 0.0
2016-Jun-26 23:32N 42°26' E 018°41'0 0.0
2016-Jun-26 22:32N 42°26' E 018°41'0 0.0
2016-Jun-26 21:32N 42°26' E 018°41'0 0.0
2016-Jun-26 20:32N 42°26' E 018°41'0 0.0
2016-Jun-26 19:32N 42°26' E 018°41'0 0.0
2016-Jun-26 18:32N 42°26' E 018°41'3 3.1
2016-Jun-26 17:33N 42°28' E 018°45'3 2.5
2016-Jun-26 16:31N 42°25' E 018°46'0 0.0
2016-Jun-26 15:31N 42°25' E 018°46'0 0.0
2016-Jun-26 14:28N 42°25' E 018°46'0 0.0
2016-Jun-26 13:31N 42°25' E 018°46'0 0.0
2016-Jun-26 12:31N 42°25' E 018°46'0 0.0
2016-Jun-26 11:31N 42°25' E 018°46'0 0.0
2016-Jun-26 10:31N 42°25' E 018°46'0 0.0
2016-Jun-26 09:31N 42°25' E 018°46'0 0.0
2016-Jun-26 08:31N 42°25' E 018°46'0 0.0
2016-Jun-26 07:31N 42°25' E 018°46'0 0.0
2016-Jun-26 06:31N 42°25' E 018°46'0 0.0
2016-Jun-26 05:31N 42°25' E 018°46'0 0.0
2016-Jun-26 04:31N 42°25' E 018°46'0 0.0
2016-Jun-26 03:28N 42°25' E 018°46'0 0.0
2016-Jun-26 02:31N 42°25' E 018°46'0 0.0
2016-Jun-26 01:31N 42°25' E 018°46'0 0.0
2016-Jun-26 00:31N 42°25' E 018°46'0 0.0
2016-Jun-25 23:31N 42°25' E 018°46'0 0.0
2016-Jun-25 22:31N 42°25' E 018°46'0 0.0
2016-Jun-25 21:31N 42°25' E 018°46'0 0.0
2016-Jun-25 20:31N 42°25' E 018°46'0 0.0
2016-Jun-25 19:28N 42°25' E 018°46'0 0.0
2016-Jun-25 18:31N 42°25' E 018°46'0 0.0
2016-Jun-25 17:31N 42°25' E 018°46'0 0.0
2016-Jun-25 16:28N 42°25' E 018°46'0 0.0
2016-Jun-25 15:28N 42°25' E 018°46'0 0.0
2016-Jun-25 14:31N 42°25' E 018°46'0 0.0
2016-Jun-25 13:31N 42°25' E 018°46'0 0.0
2016-Jun-25 12:31N 42°25' E 018°46'0 0.0
2016-Jun-25 11:31N 42°25' E 018°46'0 0.0
2016-Jun-25 10:28N 42°25' E 018°46'0 0.0
2016-Jun-25 09:31N 42°25' E 018°46'0 0.0
2016-Jun-25 08:31N 42°25' E 018°46'0 0.0
2016-Jun-25 07:32N 42°25' E 018°46'0 0.0
2016-Jun-25 06:29N 42°25' E 018°46'0 0.0
2016-Jun-25 05:32N 42°25' E 018°46'0 0.0
2016-Jun-25 04:32N 42°25' E 018°46'0 0.0
2016-Jun-25 03:32N 42°25' E 018°46'0 0.0
2016-Jun-25 02:32N 42°25' E 018°46'0 0.0
2016-Jun-25 01:32N 42°25' E 018°46'0 0.0
2016-Jun-25 00:32N 42°25' E 018°46'0 0.0
2016-Jun-24 23:32N 42°25' E 018°46'0 0.0
2016-Jun-24 22:32N 42°25' E 018°46'0 0.0
2016-Jun-24 21:32N 42°25' E 018°46'0 0.0
2016-Jun-24 20:32N 42°25' E 018°46'2 1.6
2016-Jun-24 19:33N 42°27' E 018°46'7 7.3
2016-Jun-24 18:33N 42°26' E 018°36'7 6.8
2016-Jun-24 17:33N 42°19' E 018°39'9 4.0
2016-Jun-24 15:16N 42°17' E 018°51'0 0.0
2016-Jun-24 06:32N 42°16' E 018°51'  
2016-Jun-20 21:33N 38°09' E 020°50'8 8.0
2016-Jun-20 20:32N 38°02' E 020°45'16 3.1
2016-Jun-20 15:31N 38°08' E 020°27'1212.3
2016-Jun-20 14:34N 37°57' E 020°33'7 6.5
2016-Jun-20 13:31N 37°56' E 020°42'2 2.3
2016-Jun-20 12:31N 37°54' E 020°43'0 0.0
2016-Jun-20 10:31N 37°54' E 020°43'0 0.0
2016-Jun-20 08:28N 37°54' E 020°43'0 0.1
2016-Jun-20 07:33N 37°54' E 020°43'1312.8
2016-Jun-20 06:32N 37°48' E 020°57'  

Dump ship's entire track history